Latest Weather Observations for Centre Island

IDD60801

Issued at 9:01 pm CST Saturday 3 December 2016 (issued every 30 minutes, with the page automatically refreshed every 10 minutes)

About weather observations | Map of weather stations | Latest weather observations for NT | Other Formats
Station Details ID: 014703 Name: CENTRE ISLAND Lat: -15.74 Lon: 136.82 Height: 12.2 m
Data from the previous 72 hours. | See also: Recent months at Centre Island
Date/Time
CST
Temp
°C
App
Temp
°C
Dew
Point
°C
Rel
Hum
%
Delta-T
°C
Wind Press
QNH
hPa
Press
MSL
hPa
Rain since
9am
mm
Dir  Spd
km/h
Gust
km/h
Spd
kts
Gust
kts
03/09:00pm 29.6 31.9 22.1 64 5.1 N 13 19 7 10 1010.7 1010.6 0.0
03/08:30pm 29.8 32.1 22.8 66 4.8 N 15 19 8 10 1010.3 1010.2 0.0
03/08:00pm 29.8 31.9 22.5 65 5.0 N 15 20 8 11 1009.9 1009.8 0.0
03/07:30pm 30.1 32.7 23.3 67 4.7 NNE 15 20 8 11 1009.6 1009.5 0.0
03/07:00pm 30.1 31.5 22.5 63 5.2 NNE 19 24 10 13 1009.3 1009.2 0.0
03/06:30pm 30.5 31.6 22.4 62 5.5 NNE 20 26 11 14 1009.2 1009.1 0.0
03/06:00pm 31.3 32.6 22.6 60 6.0 NNE 20 26 11 14 1009.0 1008.9 0.0
03/05:30pm 31.8 32.1 21.6 54 6.9 NE 22 28 12 15 1008.8 1008.7 0.0
03/05:00pm 32.6 33.2 22.1 54 7.2 NE 22 28 12 15 1008.6 1008.5 0.0
03/04:30pm 32.9 33.3 21.7 51 7.6 NNE 22 28 12 15 1008.5 1008.4 0.0
03/04:00pm 33.4 33.9 21.9 51 7.8 NNE 22 30 12 16 1008.4 1008.3 0.0
03/03:30pm 33.7 34.1 22.5 52 7.7 NNE 24 32 13 17 1008.5 1008.4 0.0
03/03:00pm 34.4 35.5 23.1 51 7.8 NNE 22 30 12 16 1008.8 1008.7 0.0
03/02:30pm 34.3 34.1 22.0 48 8.4 NNE 26 32 14 17 1009.1 1009.0 0.0
03/02:00pm 34.7 34.7 21.7 46 8.9 NNE 24 32 13 17 1009.2 1009.1 0.0
03/01:30pm 34.6 36.4 23.6 52 7.7 NNE 20 28 11 15 1009.6 1009.5 0.0
03/01:00pm 34.5 36.1 23.2 51 7.8 NNE 20 28 11 15 1010.0 1009.9 0.0
03/12:30pm 34.5 36.8 24.1 54 7.3 NNE 19 28 10 15 1010.4 1010.3 0.0
03/12:00pm 34.5 36.6 23.8 53 7.5 NNE 19 26 10 14 1011.1 1011.0 0.0
03/11:30am 34.8 37.5 24.1 53 7.5 NNE 17 24 9 13 1011.5 1011.4 0.0
03/11:00am 33.1 35.4 23.4 56 6.7 NE 17 20 9 11 1012.0 1011.9 0.0
03/10:30am 33.8 36.5 23.5 55 7.2 NE 15 19 8 10 1012.0 1011.9 0.0
03/10:00am 33.4 36.4 23.4 55 6.9 NNE 13 19 7 10 1012.1 1012.0 0.0
03/09:30am 33.5 37.5 24.4 59 6.4 NNE 11 19 6 10 1012.1 1012.0 0.0
03/09:00am 32.4 35.9 24.2 62 5.7 NE 13 17 7 9 1012.1 1012.0 0.0
03/08:30am 31.9 35.4 24.2 63 5.4 ENE 13 17 7 9 1012.1 1012.0 0.0
03/08:00am 31.9 35.9 25.0 67 4.9 ENE 13 19 7 10 1012.0 1011.9 0.0
03/07:30am 30.6 34.0 24.7 71 4.1 E 15 19 8 10 1011.7 1011.6 0.0
03/07:00am 31.1 35.7 25.4 71 4.0 NE 11 20 6 11 1011.4 1011.3 0.0
03/06:30am 29.5 33.6 24.6 75 3.4 NE 11 13 6 7 1010.9 1010.8 0.0
03/06:00am 29.2 33.6 25.0 78 2.9 NE 11 13 6 7 1010.7 1010.6 0.0
03/05:30am 29.0 33.9 25.2 80 2.7 NNE 9 13 5 7 1010.1 1010.0 0.0
03/05:00am 28.5 33.8 24.9 81 2.5 N 6 9 3 5 1009.8 1009.7 0.0
03/04:30am 28.3 33.4 24.7 81 2.5 NNW 6 7 3 4 1009.6 1009.5 0.0
03/04:00am 28.4 34.0 24.8 81 2.5 WNW 4 6 2 3 1009.4 1009.3 0.0
03/03:30am 28.7 33.7 24.5 78 2.9 N 6 6 3 3 1009.2 1009.1 0.0
03/03:00am 28.9 34.0 24.7 78 2.9 NNW 6 7 3 4 1009.3 1009.2 0.0
03/02:30am 29.1 34.0 24.7 77 3.1 N 7 11 4 6 1009.1 1009.0 0.0
03/02:00am 29.2 34.3 25.0 78 2.9 N 7 11 4 6 1009.3 1009.2 0.0
03/01:30am 29.3 33.9 24.8 77 3.2 N 9 13 5 7 1009.2 1009.1 0.0
03/01:00am 29.4 34.1 24.9 77 3.2 N 9 13 5 7 1009.8 1009.7 0.0
03/12:30am 29.4 33.6 24.7 76 3.3 N 11 13 6 7 1010.1 1010.0 0.0
03/12:00am 29.4 34.0 24.7 76 3.3 N 9 13 5 7 1010.5 1010.4 0.0
 
Date/Time
CST
Temp
°C
App
Temp
°C
Dew
Point
°C
Rel
Hum
%
Delta-T
°C
Wind Press
QNH
hPa
Press
MSL
hPa
Rain since
9am
mm
Dir  Spd
km/h
Gust
km/h
Spd
kts
Gust
kts
02/11:30pm 29.7 34.3 24.8 75 3.4 NNE 9 13 5 7 1010.6 1010.5 0.0
02/11:00pm 29.9 33.2 24.5 73 3.8 NNE 15 20 8 11 1010.7 1010.6 0.0
02/10:30pm 30.1 33.5 24.7 73 3.8 NE 15 19 8 10 1010.8 1010.7 0.0
02/10:00pm 30.1 33.1 24.7 73 3.8 NE 17 22 9 12 1010.6 1010.5 0.0
02/09:30pm 30.2 32.9 24.8 73 3.8 NE 19 24 10 13 1010.3 1010.2 0.0
02/09:00pm 30.3 33.2 24.4 70 4.1 NE 17 20 9 11 1009.8 1009.7 0.0
02/08:30pm 30.3 32.7 24.2 70 4.3 NE 19 24 10 13 1009.7 1009.6 0.0
02/08:00pm 30.3 33.0 24.7 72 3.9 NE 19 24 10 13 1009.5 1009.4 0.0
02/07:30pm 30.3 32.8 24.7 72 3.9 NE 20 24 11 13 1009.4 1009.3 0.0
02/07:00pm 30.4 32.9 24.8 72 3.9 NE 20 26 11 14 1009.3 1009.2 0.0
02/06:30pm 30.5 33.1 24.9 72 3.9 NNE 20 26 11 14 1008.9 1008.8 0.0
02/06:00pm 31.1 33.9 25.2 71 4.2 NNE 20 26 11 14 1008.7 1008.6 0.0
02/05:30pm 31.7 33.4 24.6 66 5.0 NNE 24 30 13 16 1008.3 1008.2 0.0
02/05:00pm 32.1 34.2 24.7 65 5.2 NE 22 28 12 15 1008.2 1008.1 0.0
02/04:30pm 32.9 35.3 25.2 64 5.5 NE 22 28 12 15 1008.1 1008.0 0.0
02/04:00pm 33.1 34.9 24.8 61 5.9 NE 24 30 13 16 1008.3 1008.2 0.0
02/03:30pm 33.5 35.6 24.7 60 6.2 NE 22 30 12 16 1008.4 1008.3 0.0
02/03:00pm 34.0 36.4 24.6 58 6.6 NE 20 26 11 14 1008.5 1008.4 0.0
02/02:30pm 34.3 36.5 24.3 56 7.0 NE 20 24 11 13 1008.9 1008.8 0.0
02/02:00pm 34.8 37.3 23.8 53 7.7 NE 17 24 9 13 1009.3 1009.2 0.0
02/01:30pm 35.7 38.1 23.0 48 8.8 N 15 22 8 12 1009.6 1009.5 0.0
02/01:00pm 35.2 37.9 23.5 50 8.2 NNE 15 20 8 11 1010.1 1010.0 0.0
02/12:30pm 33.4 35.5 23.1 54 7.1 N 17 24 9 13 1010.4 1010.3 0.0
02/12:00pm 32.7 35.6 23.9 60 6.1 N 15 20 8 11 1010.7 1010.6 0.0
02/11:30am 32.6 34.1 22.7 56 6.8 N 19 24 10 13 1010.8 1010.7 0.0
02/11:00am 33.8 35.0 22.2 50 7.9 N 19 24 10 13 1010.9 1010.8 0.0
02/10:30am 33.0 34.5 23.0 55 6.9 NNE 20 26 11 14 1011.2 1011.1 0.0
02/10:00am 33.0 35.7 24.2 60 6.2 N 17 24 9 13 1011.2 1011.1 0.0
02/09:30am 32.9 35.8 24.4 61 6.0 N 17 24 9 13 1011.2 1011.1 0.0
02/09:00am 32.0 34.5 24.8 65 5.1 N 20 26 11 14 1011.3 1011.2 0.0
02/08:30am 30.9 33.4 24.5 68 4.5 N 19 26 10 14 1010.9 1010.8 0.0
02/08:00am 30.7 34.1 24.6 70 4.3 NNW 15 24 8 13 1010.6 1010.5 0.0
02/07:30am 30.8 34.3 25.4 73 3.8 N 17 22 9 12 1010.3 1010.2 0.0
02/07:00am 30.4 33.9 25.5 75 3.5 N 17 24 9 13 1009.9 1009.8 0.0
02/06:30am 29.7 33.4 25.2 77 3.2 N 15 20 8 11 1009.7 1009.6 0.0
02/06:00am 29.5 32.7 25.0 77 3.2 N 17 24 9 13 1009.5 1009.4 0.0
02/05:30am 29.3 32.8 24.8 77 3.2 N 15 22 8 12 1009.1 1009.0 0.0
02/05:00am 29.4 32.4 24.7 76 3.3 NNW 17 24 9 13 1008.8 1008.7 0.0
02/04:30am 29.5 32.1 24.6 75 3.4 NNW 19 26 10 14 1008.5 1008.4 0.0
02/04:00am 29.5 31.4 24.4 74 3.6 NNW 22 30 12 16 1008.2 1008.1 0.0
02/03:30am 29.7 32.6 25.4 78 3.0 NNW 20 32 11 17 1008.1 1008.0 0.0
02/03:00am 29.6 32.7 25.4 78 3.0 N 19 26 10 14 1008.0 1007.9 0.0
02/02:30am 29.6 32.2 24.9 76 3.3 N 20 28 11 15 1007.9 1007.8 0.0
02/02:00am 29.7 32.5 25.2 77 3.2 N 20 32 11 17 1007.8 1007.7 0.0
02/01:30am 29.7 31.7 24.6 74 3.6 N 22 30 12 16 1007.7 1007.6 0.0
02/01:00am 29.9 32.2 25.0 75 3.4 N 22 30 12 16 1007.9 1007.8 0.0
02/12:30am 29.9 32.3 25.2 76 3.3 NNE 22 30 12 16 1008.4 1008.3 0.0
02/12:00am 29.9 31.9 25.2 76 3.3 N 24 30 13 16 1008.6 1008.5 0.0
 
Date/Time
CST
Temp
°C
App
Temp
°C
Dew
Point
°C
Rel
Hum
%
Delta-T
°C
Wind Press
QNH
hPa
Press
MSL
hPa
Rain since
9am
mm
Dir  Spd
km/h
Gust
km/h
Spd
kts
Gust
kts
01/11:30pm 30.1 31.6 25.6 77 3.2 NNE 28 35 15 19 1008.8 1008.7 0.0
01/11:00pm 30.1 31.7 25.2 75 3.5 NNE 26 33 14 18 1008.8 1008.7 0.0
01/10:30pm 30.1 31.6 24.9 73 3.7 NNE 26 33 14 18 1008.7 1008.6 0.0
01/10:00pm 30.2 31.6 24.8 73 3.8 NNE 26 35 14 19 1008.5 1008.4 0.0
01/09:30pm 30.2 31.3 24.4 71 4.1 NNE 26 35 14 19 1008.1 1008.0 0.0
01/09:00pm 30.2 31.3 24.4 71 4.1 NNE 26 33 14 18 1008.0 1007.9 0.0
01/08:30pm 30.2 31.9 24.6 72 3.9 NE 24 33 13 18 1007.5 1007.4 0.0
01/08:00pm 30.1 31.6 24.3 71 4.0 NE 24 30 13 16 1007.1 1007.0 0.0
01/07:30pm 30.1 32.3 24.3 71 4.0 NE 20 26 11 14 1006.8 1006.7 0.0
01/07:00pm 30.1 32.3 23.3 67 4.7 NE 17 24 9 13 1006.6 1006.5 0.0
01/06:30pm 30.4 32.6 23.3 66 4.9 NE 17 22 9 12 1006.7 1006.6 0.0
01/06:00pm 31.1 32.3 23.2 63 5.5 NE 22 26 12 14 1006.4 1006.3 0.0
01/05:30pm 31.8 33.0 22.5 58 6.4 NE 20 26 11 14 1005.9 1005.8 0.0
01/05:00pm 32.4 34.1 23.4 59 6.2 NE 20 26 11 14 1005.9 1005.8 0.0
01/04:30pm 32.2 33.4 23.2 59 6.2 NE 22 30 12 16 1005.9 1005.8 0.0
01/04:00pm 33.2 34.6 23.5 56 6.7 NE 22 28 12 15 1006.2 1006.1 0.0
01/03:30pm 33.6 34.5 23.3 55 7.2 NE 24 32 13 17 1006.6 1006.5 0.0
01/03:00pm 33.8 34.8 23.5 55 7.2 NE 24 30 13 16 1006.9 1006.8 0.0
01/02:30pm 33.7 35.0 23.4 55 7.2 NE 22 30 12 16 1007.2 1007.1 0.0
01/02:00pm 34.1 34.9 23.2 53 7.6 NE 24 30 13 16 1007.6 1007.5 0.0
01/01:30pm 35.6 37.0 21.8 44 9.4 NNE 17 22 9 12 1007.9 1007.8 0.0
01/01:00pm 34.6 36.6 23.0 51 8.0 NNE 17 22 9 12 1008.1 1008.0 0.0
01/12:30pm 34.4 35.8 22.8 51 8.0 NNE 20 28 11 15 1008.4 1008.3 0.0
01/12:00pm 34.4 36.5 22.5 50 8.2 NNW 15 26 8 14 1008.6 1008.5 0.0
01/11:30am 34.6 35.9 22.3 48 8.5 N 19 24 10 13 1008.9 1008.8 0.0
01/11:00am 33.7 36.0 23.4 55 7.2 NNE 17 24 9 13 1009.4 1009.3 0.0
01/10:30am 33.3 35.0 22.4 52 7.5 NNW 17 24 9 13 1009.8 1009.7 0.0
01/10:00am 33.3 35.2 22.7 53 7.3 NNW 17 24 9 13 1010.0 1009.9 0.0
01/09:30am 33.4 35.7 22.8 53 7.3 N 15 19 8 10 1009.9 1009.8 0.0
01/09:00am 32.8 34.8 21.6 51 7.6 NNE 13 20 7 11 1010.2 1010.1 0.0
01/08:30am 32.6 35.6 23.3 58 6.4 NNE 13 17 7 9 1010.1 1010.0 0.0
01/08:00am 31.4 34.7 23.2 61 5.7 NNE 11 15 6 8 1010.0 1009.9 0.0
01/07:30am 30.8 33.5 22.9 62 5.4 N 13 17 7 9 1009.7 1009.6 0.0
01/07:00am 30.1 33.2 23.5 67 4.6 N 13 20 7 11 1009.3 1009.2 0.0
01/06:30am 29.2 32.3 23.6 72 3.9 N 13 17 7 9 1008.8 1008.7 0.0
01/06:00am 28.4 31.9 23.5 75 3.4 N 11 19 6 10 1008.2 1008.1 0.0
01/05:30am 28.2 30.7 22.4 71 3.9 NW 13 19 7 10 1007.7 1007.6 0.0
01/05:00am 28.4 31.5 23.5 75 3.4 NNW 13 17 7 9 1007.7 1007.6 0.0
01/04:30am 28.2 31.7 23.6 76 3.2 NW 11 17 6 9 1007.6 1007.5 0.0
01/04:00am 28.4 32.0 23.8 76 3.2 NW 11 17 6 9 1007.5 1007.4 0.0
01/03:30am 28.6 32.7 24.6 79 2.8 NW 11 15 6 8 1007.5 1007.4 0.0
01/03:00am 28.8 33.0 24.8 79 2.8 NNW 11 17 6 9 1007.1 1007.0 0.0
01/02:30am 28.9 32.4 24.9 79 2.8 NNW 15 22 8 12 1007.1 1007.0 0.0
01/02:00am 29.1 32.4 25.1 79 2.8 NNW 17 22 9 12 1007.3 1007.2 0.0
01/01:30am 29.2 32.2 25.2 79 2.8 N 19 26 10 14 1007.3 1007.2 0.0
01/01:00am 29.2 31.9 25.0 78 2.9 N 20 28 11 15 1007.4 1007.3 0.0
01/12:30am 29.3 32.0 25.1 78 3.0 N 20 30 11 16 1007.6 1007.5 0.0
01/12:00am 29.5 32.0 24.8 76 3.3 N 20 28 11 15 1007.9 1007.8 0.0
 
Date/Time
CST
Temp
°C
App
Temp
°C
Dew
Point
°C
Rel
Hum
%
Delta-T
°C
Wind Press
QNH
hPa
Press
MSL
hPa
Rain since
9am
mm
Dir  Spd
km/h
Gust
km/h
Spd
kts
Gust
kts
30/11:30pm 29.5 31.6 25.3 78 3.0 N 24 33 13 18 1008.1 1008.0 0.0
30/11:00pm 29.6 32.4 25.8 80 2.7 N 22 32 12 17 1008.3 1008.2 0.0
30/10:30pm 29.7 32.1 25.2 77 3.2 N 22 30 12 16 1008.6 1008.5 0.0
30/10:00pm 30.0 32.8 25.3 76 3.3 NNE 20 28 11 15 1008.6 1008.5 0.0
30/09:30pm 30.3 31.8 24.9 73 3.8 NNE 26 32 14 17 1008.5 1008.4 0.0

Other Formats:

Comma delimited format used in spreadsheet applications
http://www.bom.gov.au/fwo/IDD60801/IDD60801.94248.axf

JavaScript Object Notation format (JSON) in row-major order
http://www.bom.gov.au/fwo/IDD60801/IDD60801.94248.json